Αθήνα, Greece

8:29 AM EEST on September 02, 2015 (GMT +0300)
Larissis Station | | Change Station
CLOSE
Current Station
Personal Weather Station
Location: Athens, ATTICA
Elevation: 200 ft
Nearby Weather Stations

Elev 200 ft 37.99 °N, 23.72 °E | Updated 4 minutes ago

Clear
Clear
77.5 °F
Feels Like 79 °F
N
0.0
Wind Variable Wind from North
Gusts 0.0 mph

Today
High -- | Low -- °F
--% Chance of Precip.
Yesterday
High -- | Low -- °F
Precip. -- in
6:55 AM 7:53 PM
Waning Gibbous, 83% visible
Pressure 29.86 in
Visibility -9999.0 miles
Clouds
Heat Index 79 °F
Dew Point 63 °F
Humidity 60%
Rainfall 0.00 in
Snow Depth Not available.
UV Not available.
Pollen Not available.
Air Quality Not available.
Flu Activity Not available.
METAR LGEL 020520Z VRB03KT CAVOK 23/12 Q1011
Pressure 29.86 in
Visibility -9999.0 miles
Clouds
Heat Index 79 °F
Dew Point 63 °F
Humidity 60%
Rainfall 0.00 in
Snow Depth Not available.
UV Not available.
Pollen Not available.
Air Quality Not available.
Flu Activity Not available.
METAR LGEL 020520Z VRB03KT CAVOK 23/12 Q1011

10-Day Weather Forecast

×

Almanac

Astronomy

Sep. 02, 2015 Rise Set
Actual Time
Civil Twilight
Nautical Twilight
Astronomical Twilight
Moon
Length of Visible Light
Length of Day
Tomorrow will be .
, % of the Moon is Illuminated

Today's Extremes

Country Highs Country Lows

Community

WunderPhotos

Upload Photos

1,851,705 photos uploaded!

WunderBlogs® & News

Nearby

Air Quality

  Air Quality AQ Index Pollutant
Not available.

Snow Depth

Station Depth Elevation

Earthquake Activity

City Distance Mag. Time & Date
Minimum magnitude displayed is 2.5.

Coastal Water Temperatures

Place Temperature

Stations

Nearby Weather Stations

Station Location Temp. Windchill Dew Point Humidity Wind Precip. Elev Updated Type